Sunray, Texas
Current Conditions -  °F | °C
As of 8:35 PM on Friday 24 Oct 2014 (Local Time) from KDUX Reporting Station
NA  
Wind Chill: 64°   Ceiling: NA
Heat Index: 64°   Visibility: 10mi
Dew Point: 39°   Wind: 8mph
Humidity: 40%   Direction: 180°S
Pressure: 30.12"   Gusts: NA
Location:  36.02°N, 101.82°W
Report Text: KDUX 250135Z AUTO 18007KT 10SM 18/04 A3012 RMK AO2 T01800041
Loading
Personal Weather Stations






























Interactive Weather Map
Tropical Storm Tracking
New forecast layout! Learn more

10-Day Weather Forecast

Advertisements
Track Severe Weather on mobile